sensor_id;sensor_type;location;lat;lon;timestamp;P1;durP1;ratioP1;P2;durP2;ratioP2
7587;SDS011;3835;48.850;8.938;2023-12-04T00:00:35;22.77;;;20.63;;
7587;SDS011;3835;48.850;8.938;2023-12-04T00:03:02;24.35;;;21.40;;
7587;SDS011;3835;48.850;8.938;2023-12-04T00:05:29;24.73;;;22.13;;
7587;SDS011;3835;48.850;8.938;2023-12-04T00:07:55;23.88;;;21.38;;
7587;SDS011;3835;48.850;8.938;2023-12-04T00:10:22;24.30;;;21.80;;
7587;SDS011;3835;48.850;8.938;2023-12-04T00:12:49;23.60;;;21.13;;
7587;SDS011;3835;48.850;8.938;2023-12-04T00:15:16;25.48;;;22.90;;
7587;SDS011;3835;48.850;8.938;2023-12-04T00:17:46;24.67;;;21.80;;
7587;SDS011;3835;48.850;8.938;2023-12-04T00:20:13;27.83;;;24.05;;
7587;SDS011;3835;48.850;8.938;2023-12-04T00:22:40;25.02;;;22.40;;
7587;SDS011;3835;48.850;8.938;2023-12-04T00:25:07;25.08;;;21.75;;
7587;SDS011;3835;48.850;8.938;2023-12-04T00:27:34;25.52;;;22.73;;
7587;SDS011;3835;48.850;8.938;2023-12-04T00:30:01;24.80;;;22.33;;
7587;SDS011;3835;48.850;8.938;2023-12-04T00:32:29;25.20;;;21.42;;
7587;SDS011;3835;48.850;8.938;2023-12-04T00:34:57;24.45;;;21.85;;
7587;SDS011;3835;48.850;8.938;2023-12-04T00:37:24;24.02;;;21.73;;
7587;SDS011;3835;48.850;8.938;2023-12-04T00:39:52;24.10;;;21.33;;
7587;SDS011;3835;48.850;8.938;2023-12-04T00:42:19;24.25;;;21.48;;
7587;SDS011;3835;48.850;8.938;2023-12-04T00:44:45;28.92;;;22.38;;
7587;SDS011;3835;48.850;8.938;2023-12-04T00:47:12;24.55;;;22.02;;
7587;SDS011;3835;48.850;8.938;2023-12-04T00:49:39;24.85;;;22.27;;
7587;SDS011;3835;48.850;8.938;2023-12-04T00:52:07;24.52;;;22.13;;
7587;SDS011;3835;48.850;8.938;2023-12-04T00:54:34;24.65;;;22.23;;
7587;SDS011;3835;48.850;8.938;2023-12-04T00:57:01;23.58;;;21.27;;
7587;SDS011;3835;48.850;8.938;2023-12-04T00:59:28;24.45;;;22.05;;
7587;SDS011;3835;48.850;8.938;2023-12-04T01:01:54;26.55;;;23.88;;
7587;SDS011;3835;48.850;8.938;2023-12-04T01:04:21;23.88;;;21.33;;
7587;SDS011;3835;48.850;8.938;2023-12-04T01:06:48;26.10;;;22.90;;
7587;SDS011;3835;48.850;8.938;2023-12-04T01:09:16;24.35;;;21.95;;
7587;SDS011;3835;48.850;8.938;2023-12-04T01:11:43;24.77;;;22.15;;
7587;SDS011;3835;48.850;8.938;2023-12-04T01:14:10;24.85;;;22.27;;
7587;SDS011;3835;48.850;8.938;2023-12-04T01:16:37;24.75;;;22.25;;
7587;SDS011;3835;48.850;8.938;2023-12-04T01:19:04;23.35;;;20.60;;
7587;SDS011;3835;48.850;8.938;2023-12-04T01:21:31;22.95;;;20.73;;
7587;SDS011;3835;48.850;8.938;2023-12-04T01:23:57;22.98;;;20.52;;
7587;SDS011;3835;48.850;8.938;2023-12-04T01:26:26;23.45;;;21.13;;
7587;SDS011;3835;48.850;8.938;2023-12-04T01:28:52;23.50;;;21.27;;
7587;SDS011;3835;48.850;8.938;2023-12-04T01:31:19;23.15;;;20.73;;
7587;SDS011;3835;48.850;8.938;2023-12-04T01:33:46;23.95;;;21.48;;
7587;SDS011;3835;48.850;8.938;2023-12-04T01:36:13;23.38;;;20.88;;
7587;SDS011;3835;48.850;8.938;2023-12-04T01:38:40;23.83;;;19.88;;
7587;SDS011;3835;48.850;8.938;2023-12-04T01:41:07;22.88;;;20.48;;
7587;SDS011;3835;48.850;8.938;2023-12-04T01:43:35;23.70;;;21.42;;
7587;SDS011;3835;48.850;8.938;2023-12-04T01:46:02;23.98;;;21.65;;
7587;SDS011;3835;48.850;8.938;2023-12-04T01:48:29;22.90;;;20.75;;
7587;SDS011;3835;48.850;8.938;2023-12-04T01:50:58;22.65;;;19.00;;
7587;SDS011;3835;48.850;8.938;2023-12-04T01:53:29;20.35;;;18.17;;
7587;SDS011;3835;48.850;8.938;2023-12-04T01:55:57;22.20;;;19.05;;
7587;SDS011;3835;48.850;8.938;2023-12-04T01:58:24;22.90;;;19.83;;
7587;SDS011;3835;48.850;8.938;2023-12-04T02:00:52;21.40;;;19.38;;
7587;SDS011;3835;48.850;8.938;2023-12-04T02:03:19;19.90;;;17.90;;
7587;SDS011;3835;48.850;8.938;2023-12-04T02:05:46;20.20;;;18.13;;
7587;SDS011;3835;48.850;8.938;2023-12-04T02:08:13;22.58;;;20.10;;
7587;SDS011;3835;48.850;8.938;2023-12-04T02:10:40;21.75;;;19.15;;
7587;SDS011;3835;48.850;8.938;2023-12-04T02:13:07;20.38;;;18.20;;
7587;SDS011;3835;48.850;8.938;2023-12-04T02:15:34;21.50;;;19.30;;
7587;SDS011;3835;48.850;8.938;2023-12-04T02:18:03;21.05;;;18.88;;
7587;SDS011;3835;48.850;8.938;2023-12-04T02:20:30;20.52;;;18.67;;
7587;SDS011;3835;48.850;8.938;2023-12-04T02:22:58;20.70;;;18.73;;
7587;SDS011;3835;48.850;8.938;2023-12-04T02:25:26;22.13;;;19.92;;
7587;SDS011;3835;48.850;8.938;2023-12-04T02:27:53;20.80;;;18.65;;
7587;SDS011;3835;48.850;8.938;2023-12-04T02:30:22;21.55;;;19.30;;
7587;SDS011;3835;48.850;8.938;2023-12-04T02:32:50;22.52;;;20.42;;
7587;SDS011;3835;48.850;8.938;2023-12-04T02:35:20;22.52;;;20.17;;
7587;SDS011;3835;48.850;8.938;2023-12-04T02:37:49;22.60;;;20.42;;
7587;SDS011;3835;48.850;8.938;2023-12-04T02:40:17;22.00;;;19.42;;
7587;SDS011;3835;48.850;8.938;2023-12-04T02:42:45;22.45;;;19.90;;
7587;SDS011;3835;48.850;8.938;2023-12-04T02:45:12;21.88;;;19.58;;
7587;SDS011;3835;48.850;8.938;2023-12-04T02:47:39;21.98;;;19.98;;
7587;SDS011;3835;48.850;8.938;2023-12-04T02:50:06;21.77;;;19.25;;
7587;SDS011;3835;48.850;8.938;2023-12-04T02:52:33;21.38;;;19.27;;
7587;SDS011;3835;48.850;8.938;2023-12-04T02:55:00;22.85;;;20.35;;
7587;SDS011;3835;48.850;8.938;2023-12-04T02:57:27;22.88;;;20.48;;
7587;SDS011;3835;48.850;8.938;2023-12-04T02:59:55;24.67;;;20.55;;
7587;SDS011;3835;48.850;8.938;2023-12-04T03:02:22;22.50;;;19.60;;
7587;SDS011;3835;48.850;8.938;2023-12-04T03:04:49;23.05;;;19.80;;
7587;SDS011;3835;48.850;8.938;2023-12-04T03:07:16;23.30;;;20.35;;
7587;SDS011;3835;48.850;8.938;2023-12-04T03:09:45;23.60;;;20.95;;
7587;SDS011;3835;48.850;8.938;2023-12-04T03:12:11;23.52;;;20.77;;
7587;SDS011;3835;48.850;8.938;2023-12-04T03:14:38;22.48;;;19.67;;
7587;SDS011;3835;48.850;8.938;2023-12-04T03:17:07;23.33;;;20.85;;
7587;SDS011;3835;48.850;8.938;2023-12-04T03:19:34;22.55;;;20.00;;
7587;SDS011;3835;48.850;8.938;2023-12-04T03:22:01;22.23;;;19.77;;
7587;SDS011;3835;48.850;8.938;2023-12-04T03:24:28;25.05;;;19.27;;
7587;SDS011;3835;48.850;8.938;2023-12-04T03:26:55;21.92;;;19.73;;
7587;SDS011;3835;48.850;8.938;2023-12-04T03:29:22;20.88;;;18.83;;
7587;SDS011;3835;48.850;8.938;2023-12-04T03:31:48;20.73;;;18.65;;
7587;SDS011;3835;48.850;8.938;2023-12-04T03:34:17;21.88;;;19.70;;
7587;SDS011;3835;48.850;8.938;2023-12-04T03:36:44;21.52;;;19.23;;
7587;SDS011;3835;48.850;8.938;2023-12-04T03:39:10;19.48;;;17.65;;
7587;SDS011;3835;48.850;8.938;2023-12-04T03:41:37;22.02;;;19.85;;
7587;SDS011;3835;48.850;8.938;2023-12-04T03:44:04;20.35;;;18.38;;
7587;SDS011;3835;48.850;8.938;2023-12-04T03:46:31;20.33;;;18.38;;
7587;SDS011;3835;48.850;8.938;2023-12-04T03:48:59;19.75;;;17.85;;
7587;SDS011;3835;48.850;8.938;2023-12-04T03:51:27;22.40;;;20.20;;
7587;SDS011;3835;48.850;8.938;2023-12-04T03:53:54;21.00;;;18.60;;
7587;SDS011;3835;48.850;8.938;2023-12-04T03:56:21;20.83;;;18.77;;
7587;SDS011;3835;48.850;8.938;2023-12-04T03:58:47;20.13;;;18.23;;
7587;SDS011;3835;48.850;8.938;2023-12-04T04:01:14;19.55;;;17.95;;
7587;SDS011;3835;48.850;8.938;2023-12-04T04:03:41;20.45;;;18.50;;
7587;SDS011;3835;48.850;8.938;2023-12-04T04:06:08;20.77;;;18.58;;
7587;SDS011;3835;48.850;8.938;2023-12-04T04:08:37;20.73;;;18.77;;
7587;SDS011;3835;48.850;8.938;2023-12-04T04:11:04;19.60;;;17.70;;
7587;SDS011;3835;48.850;8.938;2023-12-04T04:13:31;20.33;;;18.50;;
7587;SDS011;3835;48.850;8.938;2023-12-04T04:15:58;19.58;;;17.70;;
7587;SDS011;3835;48.850;8.938;2023-12-04T04:18:25;18.77;;;16.98;;
7587;SDS011;3835;48.850;8.938;2023-12-04T04:20:51;21.33;;;19.42;;
7587;SDS011;3835;48.850;8.938;2023-12-04T04:23:18;20.08;;;18.23;;
7587;SDS011;3835;48.850;8.938;2023-12-04T04:25:46;19.85;;;17.95;;
7587;SDS011;3835;48.850;8.938;2023-12-04T04:28:13;19.63;;;17.77;;
7587;SDS011;3835;48.850;8.938;2023-12-04T04:30:40;20.90;;;19.15;;
7587;SDS011;3835;48.850;8.938;2023-12-04T04:33:07;21.17;;;19.27;;
7587;SDS011;3835;48.850;8.938;2023-12-04T04:35:34;21.08;;;19.38;;
7587;SDS011;3835;48.850;8.938;2023-12-04T04:38:01;20.52;;;18.73;;
7587;SDS011;3835;48.850;8.938;2023-12-04T04:40:27;20.52;;;18.92;;
7587;SDS011;3835;48.850;8.938;2023-12-04T04:42:56;19.92;;;18.42;;
7587;SDS011;3835;48.850;8.938;2023-12-04T04:45:22;20.73;;;19.13;;
7587;SDS011;3835;48.850;8.938;2023-12-04T04:47:49;20.98;;;19.35;;
7587;SDS011;3835;48.850;8.938;2023-12-04T04:50:16;22.00;;;20.10;;
7587;SDS011;3835;48.850;8.938;2023-12-04T04:52:43;19.95;;;18.33;;
7587;SDS011;3835;48.850;8.938;2023-12-04T04:55:10;19.70;;;18.00;;
7587;SDS011;3835;48.850;8.938;2023-12-04T04:57:36;20.77;;;19.08;;
7587;SDS011;3835;48.850;8.938;2023-12-04T05:00:05;21.05;;;19.08;;
7587;SDS011;3835;48.850;8.938;2023-12-04T05:02:33;21.73;;;19.98;;
7587;SDS011;3835;48.850;8.938;2023-12-04T05:05:02;19.70;;;18.00;;
7587;SDS011;3835;48.850;8.938;2023-12-04T05:07:29;19.65;;;18.00;;
7587;SDS011;3835;48.850;8.938;2023-12-04T05:09:56;20.00;;;18.20;;
7587;SDS011;3835;48.850;8.938;2023-12-04T05:12:23;19.85;;;18.00;;
7587;SDS011;3835;48.850;8.938;2023-12-04T05:14:50;21.00;;;19.23;;
7587;SDS011;3835;48.850;8.938;2023-12-04T05:17:18;19.60;;;17.77;;
7587;SDS011;3835;48.850;8.938;2023-12-04T05:19:45;19.33;;;17.65;;
7587;SDS011;3835;48.850;8.938;2023-12-04T05:22:12;20.17;;;18.48;;
7587;SDS011;3835;48.850;8.938;2023-12-04T05:24:38;19.88;;;17.98;;
7587;SDS011;3835;48.850;8.938;2023-12-04T05:27:06;19.25;;;17.33;;
7587;SDS011;3835;48.850;8.938;2023-12-04T05:29:33;18.73;;;17.17;;
7587;SDS011;3835;48.850;8.938;2023-12-04T05:31:59;18.73;;;17.13;;
7587;SDS011;3835;48.850;8.938;2023-12-04T05:34:34;19.40;;;17.63;;
7587;SDS011;3835;48.850;8.938;2023-12-04T05:37:01;20.63;;;18.63;;
7587;SDS011;3835;48.850;8.938;2023-12-04T05:39:28;18.80;;;17.10;;
7587;SDS011;3835;48.850;8.938;2023-12-04T05:41:55;19.02;;;17.20;;
7587;SDS011;3835;48.850;8.938;2023-12-04T05:44:21;19.33;;;17.58;;
7587;SDS011;3835;48.850;8.938;2023-12-04T05:46:48;20.65;;;18.75;;
7587;SDS011;3835;48.850;8.938;2023-12-04T05:49:15;19.58;;;17.55;;
7587;SDS011;3835;48.850;8.938;2023-12-04T05:51:43;18.77;;;17.13;;
7587;SDS011;3835;48.850;8.938;2023-12-04T05:54:10;19.10;;;17.30;;
7587;SDS011;3835;48.850;8.938;2023-12-04T05:56:37;18.92;;;17.02;;
7587;SDS011;3835;48.850;8.938;2023-12-04T05:59:04;18.30;;;16.60;;
7587;SDS011;3835;48.850;8.938;2023-12-04T06:01:31;18.98;;;17.25;;
7587;SDS011;3835;48.850;8.938;2023-12-04T06:03:58;17.50;;;16.00;;
7587;SDS011;3835;48.850;8.938;2023-12-04T06:06:24;18.70;;;17.00;;
7587;SDS011;3835;48.850;8.938;2023-12-04T06:08:53;19.65;;;17.85;;
7587;SDS011;3835;48.850;8.938;2023-12-04T06:11:20;20.23;;;18.60;;
7587;SDS011;3835;48.850;8.938;2023-12-04T06:13:47;18.52;;;17.02;;
7587;SDS011;3835;48.850;8.938;2023-12-04T06:16:14;20.40;;;18.50;;
7587;SDS011;3835;48.850;8.938;2023-12-04T06:18:41;20.30;;;18.60;;
7587;SDS011;3835;48.850;8.938;2023-12-04T06:21:08;20.70;;;18.50;;
7587;SDS011;3835;48.850;8.938;2023-12-04T06:23:35;20.58;;;18.42;;
7587;SDS011;3835;48.850;8.938;2023-12-04T06:26:04;19.50;;;17.67;;
7587;SDS011;3835;48.850;8.938;2023-12-04T06:28:32;19.45;;;17.75;;
7587;SDS011;3835;48.850;8.938;2023-12-04T06:30:59;20.20;;;18.20;;
7587;SDS011;3835;48.850;8.938;2023-12-04T06:33:26;20.55;;;18.45;;
7587;SDS011;3835;48.850;8.938;2023-12-04T06:35:54;19.75;;;18.05;;
7587;SDS011;3835;48.850;8.938;2023-12-04T06:38:22;19.45;;;17.75;;
7587;SDS011;3835;48.850;8.938;2023-12-04T06:40:51;20.67;;;18.77;;
7587;SDS011;3835;48.850;8.938;2023-12-04T06:43:20;20.33;;;18.23;;
7587;SDS011;3835;48.850;8.938;2023-12-04T06:45:47;18.95;;;17.23;;
7587;SDS011;3835;48.850;8.938;2023-12-04T06:48:14;20.80;;;18.88;;
7587;SDS011;3835;48.850;8.938;2023-12-04T06:50:42;20.55;;;18.60;;
7587;SDS011;3835;48.850;8.938;2023-12-04T06:53:09;19.42;;;17.83;;
7587;SDS011;3835;48.850;8.938;2023-12-04T06:55:36;19.75;;;17.75;;
7587;SDS011;3835;48.850;8.938;2023-12-04T06:58:03;19.85;;;17.75;;
7587;SDS011;3835;48.850;8.938;2023-12-04T07:00:31;20.35;;;18.25;;
7587;SDS011;3835;48.850;8.938;2023-12-04T07:02:58;18.85;;;16.92;;
7587;SDS011;3835;48.850;8.938;2023-12-04T07:05:25;20.48;;;18.40;;
7587;SDS011;3835;48.850;8.938;2023-12-04T07:07:52;18.95;;;17.15;;
7587;SDS011;3835;48.850;8.938;2023-12-04T07:10:19;18.73;;;17.02;;
7587;SDS011;3835;48.850;8.938;2023-12-04T07:12:45;19.92;;;18.02;;
7587;SDS011;3835;48.850;8.938;2023-12-04T07:15:12;18.83;;;17.15;;
7587;SDS011;3835;48.850;8.938;2023-12-04T07:17:40;18.10;;;16.50;;
7587;SDS011;3835;48.850;8.938;2023-12-04T07:20:08;20.67;;;18.55;;
7587;SDS011;3835;48.850;8.938;2023-12-04T07:22:36;19.38;;;17.67;;
7587;SDS011;3835;48.850;8.938;2023-12-04T07:25:04;17.60;;;16.20;;
7587;SDS011;3835;48.850;8.938;2023-12-04T07:27:31;19.95;;;18.23;;
7587;SDS011;3835;48.850;8.938;2023-12-04T07:29:58;17.75;;;16.15;;
7587;SDS011;3835;48.850;8.938;2023-12-04T07:32:26;19.13;;;17.48;;
7587;SDS011;3835;48.850;8.938;2023-12-04T07:34:54;18.40;;;16.80;;
7587;SDS011;3835;48.850;8.938;2023-12-04T07:37:21;18.00;;;16.38;;
7587;SDS011;3835;48.850;8.938;2023-12-04T07:39:48;18.60;;;17.05;;
7587;SDS011;3835;48.850;8.938;2023-12-04T07:42:15;19.23;;;17.45;;
7587;SDS011;3835;48.850;8.938;2023-12-04T07:44:41;19.38;;;17.65;;
7587;SDS011;3835;48.850;8.938;2023-12-04T07:47:08;17.85;;;16.25;;
7587;SDS011;3835;48.850;8.938;2023-12-04T07:49:35;19.10;;;17.50;;
7587;SDS011;3835;48.850;8.938;2023-12-04T07:52:04;17.60;;;16.08;;
7587;SDS011;3835;48.850;8.938;2023-12-04T07:54:31;23.70;;;21.25;;
7587;SDS011;3835;48.850;8.938;2023-12-04T07:56:58;21.55;;;19.58;;
7587;SDS011;3835;48.850;8.938;2023-12-04T07:59:25;19.70;;;18.00;;
7587;SDS011;3835;48.850;8.938;2023-12-04T08:01:51;19.40;;;17.60;;
7587;SDS011;3835;48.850;8.938;2023-12-04T08:04:18;18.10;;;16.38;;
7587;SDS011;3835;48.850;8.938;2023-12-04T08:06:45;23.08;;;20.23;;
7587;SDS011;3835;48.850;8.938;2023-12-04T08:09:13;23.25;;;20.67;;
7587;SDS011;3835;48.850;8.938;2023-12-04T08:11:40;20.65;;;18.25;;
7587;SDS011;3835;48.850;8.938;2023-12-04T08:14:07;20.10;;;18.02;;
7587;SDS011;3835;48.850;8.938;2023-12-04T08:16:34;17.98;;;16.42;;
7587;SDS011;3835;48.850;8.938;2023-12-04T08:19:01;18.88;;;17.27;;
7587;SDS011;3835;48.850;8.938;2023-12-04T08:21:27;25.17;;;22.17;;
7587;SDS011;3835;48.850;8.938;2023-12-04T08:23:54;21.85;;;19.35;;
7587;SDS011;3835;48.850;8.938;2023-12-04T08:26:23;19.55;;;17.88;;
7587;SDS011;3835;48.850;8.938;2023-12-04T08:28:50;18.42;;;16.73;;
7587;SDS011;3835;48.850;8.938;2023-12-04T08:31:17;17.92;;;16.25;;
7587;SDS011;3835;48.850;8.938;2023-12-04T08:33:44;18.15;;;16.25;;
7587;SDS011;3835;48.850;8.938;2023-12-04T08:36:11;17.90;;;16.40;;
7587;SDS011;3835;48.850;8.938;2023-12-04T08:38:38;17.35;;;15.75;;
7587;SDS011;3835;48.850;8.938;2023-12-04T08:41:05;17.67;;;16.17;;
7587;SDS011;3835;48.850;8.938;2023-12-04T08:43:33;18.70;;;16.95;;
7587;SDS011;3835;48.850;8.938;2023-12-04T08:46:00;21.33;;;19.23;;
7587;SDS011;3835;48.850;8.938;2023-12-04T08:48:27;18.60;;;16.73;;
7587;SDS011;3835;48.850;8.938;2023-12-04T08:50:54;18.70;;;17.07;;
7587;SDS011;3835;48.850;8.938;2023-12-04T08:53:21;19.97;;;18.17;;
7587;SDS011;3835;48.850;8.938;2023-12-04T08:55:48;19.37;;;17.67;;
7587;SDS011;3835;48.850;8.938;2023-12-04T08:58:16;17.57;;;16.03;;
7587;SDS011;3835;48.850;8.938;2023-12-04T09:00:45;16.93;;;15.43;;
7587;SDS011;3835;48.850;8.938;2023-12-04T09:03:12;17.80;;;16.17;;
7587;SDS011;3835;48.850;8.938;2023-12-04T09:05:39;19.70;;;17.73;;
7587;SDS011;3835;48.850;8.938;2023-12-04T09:08:06;20.40;;;18.50;;
7587;SDS011;3835;48.850;8.938;2023-12-04T09:10:33;21.00;;;18.90;;
7587;SDS011;3835;48.850;8.938;2023-12-04T09:12:59;18.87;;;17.47;;
7587;SDS011;3835;48.850;8.938;2023-12-04T09:15:26;20.13;;;18.43;;
7587;SDS011;3835;48.850;8.938;2023-12-04T09:17:54;19.23;;;17.63;;
7587;SDS011;3835;48.850;8.938;2023-12-04T09:20:21;17.43;;;15.90;;
7587;SDS011;3835;48.850;8.938;2023-12-04T09:22:48;19.93;;;18.37;;
7587;SDS011;3835;48.850;8.938;2023-12-04T09:25:15;18.97;;;17.27;;
7587;SDS011;3835;48.850;8.938;2023-12-04T09:27:42;30.00;;;22.53;;
7587;SDS011;3835;48.850;8.938;2023-12-04T09:30:09;20.70;;;18.53;;
7587;SDS011;3835;48.850;8.938;2023-12-04T09:32:36;19.83;;;18.13;;
7587;SDS011;3835;48.850;8.938;2023-12-04T09:35:05;19.53;;;17.73;;
7587;SDS011;3835;48.850;8.938;2023-12-04T09:37:32;18.10;;;16.53;;
7587;SDS011;3835;48.850;8.938;2023-12-04T09:39:59;19.73;;;18.13;;
7587;SDS011;3835;48.850;8.938;2023-12-04T09:42:26;19.20;;;17.43;;
7587;SDS011;3835;48.850;8.938;2023-12-04T09:44:53;18.27;;;16.67;;
7587;SDS011;3835;48.850;8.938;2023-12-04T09:47:20;17.73;;;16.10;;
7587;SDS011;3835;48.850;8.938;2023-12-04T09:49:49;16.53;;;15.13;;
7587;SDS011;3835;48.850;8.938;2023-12-04T09:52:20;18.40;;;16.70;;
7587;SDS011;3835;48.850;8.938;2023-12-04T09:54:47;17.60;;;16.10;;
7587;SDS011;3835;48.850;8.938;2023-12-04T09:57:14;19.73;;;17.93;;
7587;SDS011;3835;48.850;8.938;2023-12-04T09:59:42;19.13;;;17.30;;
7587;SDS011;3835;48.850;8.938;2023-12-04T10:02:11;17.67;;;16.27;;
7587;SDS011;3835;48.850;8.938;2023-12-04T10:04:38;19.17;;;17.37;;
7587;SDS011;3835;48.850;8.938;2023-12-04T10:07:06;17.20;;;15.57;;
7587;SDS011;3835;48.850;8.938;2023-12-04T10:09:34;16.27;;;14.97;;
7587;SDS011;3835;48.850;8.938;2023-12-04T10:12:01;16.63;;;15.23;;
7587;SDS011;3835;48.850;8.938;2023-12-04T10:14:28;18.37;;;16.80;;
7587;SDS011;3835;48.850;8.938;2023-12-04T10:16:55;19.43;;;17.93;;
7587;SDS011;3835;48.850;8.938;2023-12-04T10:19:22;16.37;;;15.03;;
7587;SDS011;3835;48.850;8.938;2023-12-04T10:21:51;17.60;;;16.20;;
7587;SDS011;3835;48.850;8.938;2023-12-04T10:24:30;16.07;;;14.73;;
7587;SDS011;3835;48.850;8.938;2023-12-04T10:26:59;16.70;;;15.43;;
7587;SDS011;3835;48.850;8.938;2023-12-04T10:29:29;16.93;;;15.47;;
7587;SDS011;3835;48.850;8.938;2023-12-04T10:32:07;16.33;;;14.90;;
7587;SDS011;3835;48.850;8.938;2023-12-04T10:34:34;16.43;;;14.83;;
7587;SDS011;3835;48.850;8.938;2023-12-04T10:37:02;16.17;;;14.90;;
7587;SDS011;3835;48.850;8.938;2023-12-04T10:39:30;16.60;;;15.07;;
7587;SDS011;3835;48.850;8.938;2023-12-04T10:42:02;18.67;;;17.00;;
7587;SDS011;3835;48.850;8.938;2023-12-04T10:44:30;17.73;;;16.33;;
7587;SDS011;3835;48.850;8.938;2023-12-04T10:46:57;17.27;;;15.90;;
7587;SDS011;3835;48.850;8.938;2023-12-04T10:49:26;17.40;;;16.00;;
7587;SDS011;3835;48.850;8.938;2023-12-04T10:51:55;16.53;;;15.33;;
7587;SDS011;3835;48.850;8.938;2023-12-04T10:54:24;16.10;;;14.83;;
7587;SDS011;3835;48.850;8.938;2023-12-04T10:56:51;17.00;;;15.50;;
7587;SDS011;3835;48.850;8.938;2023-12-04T10:59:21;16.50;;;15.20;;
7587;SDS011;3835;48.850;8.938;2023-12-04T11:01:53;17.20;;;15.80;;
7587;SDS011;3835;48.850;8.938;2023-12-04T11:04:22;18.70;;;16.90;;
7587;SDS011;3835;48.850;8.938;2023-12-04T11:06:52;20.10;;;18.27;;
7587;SDS011;3835;48.850;8.938;2023-12-04T11:09:20;15.73;;;14.43;;
7587;SDS011;3835;48.850;8.938;2023-12-04T11:11:52;16.77;;;15.37;;
7587;SDS011;3835;48.850;8.938;2023-12-04T11:14:24;21.87;;;18.17;;
7587;SDS011;3835;48.850;8.938;2023-12-04T11:16:56;16.20;;;14.87;;
7587;SDS011;3835;48.850;8.938;2023-12-04T11:19:28;16.00;;;14.70;;
7587;SDS011;3835;48.850;8.938;2023-12-04T11:22:01;16.53;;;15.17;;
7587;SDS011;3835;48.850;8.938;2023-12-04T11:24:29;17.67;;;16.07;;
7587;SDS011;3835;48.850;8.938;2023-12-04T11:26:57;16.87;;;15.47;;
7587;SDS011;3835;48.850;8.938;2023-12-04T11:29:26;18.10;;;16.27;;
7587;SDS011;3835;48.850;8.938;2023-12-04T11:31:55;15.90;;;14.50;;
7587;SDS011;3835;48.850;8.938;2023-12-04T11:34:22;17.57;;;15.97;;
7587;SDS011;3835;48.850;8.938;2023-12-04T11:36:50;17.33;;;15.67;;
7587;SDS011;3835;48.850;8.938;2023-12-04T11:39:18;18.13;;;16.30;;
7587;SDS011;3835;48.850;8.938;2023-12-04T11:41:45;16.50;;;15.00;;
7587;SDS011;3835;48.850;8.938;2023-12-04T11:44:12;17.20;;;15.43;;
7587;SDS011;3835;48.850;8.938;2023-12-04T11:46:54;17.97;;;16.23;;
7587;SDS011;3835;48.850;8.938;2023-12-04T11:49:28;109.17;;;40.07;;
7587;SDS011;3835;48.850;8.938;2023-12-04T11:51:56;26.80;;;20.37;;
7587;SDS011;3835;48.850;8.938;2023-12-04T11:54:23;19.10;;;17.30;;
7587;SDS011;3835;48.850;8.938;2023-12-04T11:56:56;15.97;;;14.50;;
7587;SDS011;3835;48.850;8.938;2023-12-04T11:59:45;17.73;;;16.33;;
7587;SDS011;3835;48.850;8.938;2023-12-04T12:02:13;17.97;;;16.37;;
7587;SDS011;3835;48.850;8.938;2023-12-04T12:04:41;16.50;;;15.13;;
7587;SDS011;3835;48.850;8.938;2023-12-04T12:07:08;17.60;;;16.10;;
7587;SDS011;3835;48.850;8.938;2023-12-04T12:09:36;16.37;;;14.87;;
7587;SDS011;3835;48.850;8.938;2023-12-04T12:12:03;17.43;;;15.73;;
7587;SDS011;3835;48.850;8.938;2023-12-04T12:14:30;18.37;;;16.87;;
7587;SDS011;3835;48.850;8.938;2023-12-04T12:16:58;17.27;;;15.70;;
7587;SDS011;3835;48.850;8.938;2023-12-04T12:19:27;17.13;;;15.67;;
7587;SDS011;3835;48.850;8.938;2023-12-04T12:21:54;17.53;;;16.13;;
7587;SDS011;3835;48.850;8.938;2023-12-04T12:24:21;17.47;;;16.17;;
7587;SDS011;3835;48.850;8.938;2023-12-04T12:26:49;17.97;;;16.43;;
7587;SDS011;3835;48.850;8.938;2023-12-04T12:29:16;19.70;;;18.00;;
7587;SDS011;3835;48.850;8.938;2023-12-04T12:31:43;17.83;;;16.13;;
7587;SDS011;3835;48.850;8.938;2023-12-04T12:34:11;17.40;;;15.80;;
7587;SDS011;3835;48.850;8.938;2023-12-04T12:36:39;17.57;;;15.77;;
7587;SDS011;3835;48.850;8.938;2023-12-04T12:39:06;18.20;;;16.60;;
7587;SDS011;3835;48.850;8.938;2023-12-04T12:41:33;20.10;;;17.33;;
7587;SDS011;3835;48.850;8.938;2023-12-04T12:44:00;18.23;;;16.37;;
7587;SDS011;3835;48.850;8.938;2023-12-04T12:46:28;17.37;;;15.87;;
7587;SDS011;3835;48.850;8.938;2023-12-04T12:48:55;18.60;;;16.80;;
7587;SDS011;3835;48.850;8.938;2023-12-04T12:51:23;20.93;;;18.93;;
7587;SDS011;3835;48.850;8.938;2023-12-04T12:53:51;20.33;;;18.50;;
7587;SDS011;3835;48.850;8.938;2023-12-04T12:56:18;19.20;;;17.50;;
7587;SDS011;3835;48.850;8.938;2023-12-04T12:58:46;20.90;;;19.00;;
7587;SDS011;3835;48.850;8.938;2023-12-04T13:01:13;20.00;;;17.20;;
7587;SDS011;3835;48.850;8.938;2023-12-04T13:03:40;20.23;;;18.43;;
7587;SDS011;3835;48.850;8.938;2023-12-04T13:06:11;19.20;;;17.70;;
7587;SDS011;3835;48.850;8.938;2023-12-04T13:08:38;18.10;;;16.70;;
7587;SDS011;3835;48.850;8.938;2023-12-04T13:11:06;19.47;;;17.23;;
7587;SDS011;3835;48.850;8.938;2023-12-04T13:13:33;18.73;;;17.13;;
7587;SDS011;3835;48.850;8.938;2023-12-04T13:16:00;18.90;;;17.40;;
7587;SDS011;3835;48.850;8.938;2023-12-04T13:18:27;18.17;;;16.57;;
7587;SDS011;3835;48.850;8.938;2023-12-04T13:20:54;18.80;;;17.20;;
7587;SDS011;3835;48.850;8.938;2023-12-04T13:23:21;18.13;;;16.67;;
7587;SDS011;3835;48.850;8.938;2023-12-04T13:25:49;18.30;;;16.80;;
7587;SDS011;3835;48.850;8.938;2023-12-04T13:28:17;15.93;;;14.73;;
7587;SDS011;3835;48.850;8.938;2023-12-04T13:30:44;17.33;;;15.93;;
7587;SDS011;3835;48.850;8.938;2023-12-04T13:33:11;18.87;;;17.27;;
7587;SDS011;3835;48.850;8.938;2023-12-04T13:35:38;18.07;;;16.67;;
7587;SDS011;3835;48.850;8.938;2023-12-04T13:38:05;18.07;;;16.57;;
7587;SDS011;3835;48.850;8.938;2023-12-04T13:40:38;18.43;;;16.80;;
7587;SDS011;3835;48.850;8.938;2023-12-04T13:43:05;18.33;;;16.73;;
7587;SDS011;3835;48.850;8.938;2023-12-04T13:45:50;18.40;;;16.90;;
7587;SDS011;3835;48.850;8.938;2023-12-04T13:48:17;19.20;;;17.73;;
7587;SDS011;3835;48.850;8.938;2023-12-04T13:50:46;19.50;;;17.80;;
7587;SDS011;3835;48.850;8.938;2023-12-04T13:53:15;17.83;;;16.40;;
7587;SDS011;3835;48.850;8.938;2023-12-04T13:55:41;18.60;;;16.93;;
7587;SDS011;3835;48.850;8.938;2023-12-04T13:58:26;18.17;;;16.67;;
7587;SDS011;3835;48.850;8.938;2023-12-04T14:01:05;18.83;;;17.30;;
7587;SDS011;3835;48.850;8.938;2023-12-04T14:03:38;18.43;;;17.00;;
7587;SDS011;3835;48.850;8.938;2023-12-04T14:06:06;17.40;;;16.10;;
7587;SDS011;3835;48.850;8.938;2023-12-04T14:08:33;16.07;;;14.80;;
7587;SDS011;3835;48.850;8.938;2023-12-04T14:11:00;16.00;;;14.90;;
7587;SDS011;3835;48.850;8.938;2023-12-04T14:13:26;16.10;;;14.67;;
7587;SDS011;3835;48.850;8.938;2023-12-04T14:15:53;15.60;;;14.33;;
7587;SDS011;3835;48.850;8.938;2023-12-04T14:18:22;14.27;;;13.17;;
7587;SDS011;3835;48.850;8.938;2023-12-04T14:20:49;14.73;;;13.83;;
7587;SDS011;3835;48.850;8.938;2023-12-04T14:23:17;14.90;;;13.90;;
7587;SDS011;3835;48.850;8.938;2023-12-04T14:25:44;15.00;;;13.90;;
7587;SDS011;3835;48.850;8.938;2023-12-04T14:28:11;14.40;;;13.50;;
7587;SDS011;3835;48.850;8.938;2023-12-04T14:30:38;14.17;;;13.33;;
7587;SDS011;3835;48.850;8.938;2023-12-04T14:33:06;14.70;;;13.80;;
7587;SDS011;3835;48.850;8.938;2023-12-04T14:35:35;13.87;;;12.97;;
7587;SDS011;3835;48.850;8.938;2023-12-04T14:38:02;14.50;;;13.60;;
7587;SDS011;3835;48.850;8.938;2023-12-04T14:40:30;13.53;;;12.73;;
7587;SDS011;3835;48.850;8.938;2023-12-04T14:42:56;13.40;;;12.60;;
7587;SDS011;3835;48.850;8.938;2023-12-04T14:45:24;14.40;;;13.30;;
7587;SDS011;3835;48.850;8.938;2023-12-04T14:47:51;14.10;;;13.10;;
7587;SDS011;3835;48.850;8.938;2023-12-04T14:50:21;12.20;;;11.40;;